Time;durP1;ratioP1;P1;durP2;ratioP2;P2;SDS_P1;SDS_P2;PMS_P1;PMS_P2;Temp;Humidity;BMP_temperature;BMP_pressure;BME280_temperature;BME280_humidity;BME280_pressure;Samples;Min_cycle;Max_cycle;Signal;HPM_P1;HPM_P2
2020/12/15 00:01:31;;;;;;;28.03;16.37;;;;;;;1.43;82.06;100068.89;1802528;78;21061;-57
2020/12/15 00:03:59;;;;;;;31.10;17.70;;;;;;;1.44;82.10;100071.98;1798235;78;21218;-57
2020/12/15 00:06:34;;;;;;;31.17;15.77;;;;;;;1.47;82.08;100073.27;1774077;78;21515;-57
2020/12/15 00:09:02;;;;;;;29.70;16.67;;;;;;;1.49;82.11;100079.89;1736121;80;21214;-57
2020/12/15 00:11:29;;;;;;;31.73;19.03;;;;;;;1.49;82.10;100076.80;1758041;79;21589;-57
2020/12/15 00:13:57;;;;;;;33.03;18.33;;;;;;;1.50;82.07;100077.68;1754576;79;21728;-57
2020/12/15 00:16:24;;;;;;;29.87;17.37;;;;;;;1.49;82.00;100086.08;1756273;79;21629;-57
2020/12/15 00:18:51;;;;;;;30.13;17.37;;;;;;;1.45;81.98;100082.11;1759995;78;21477;-58
2020/12/15 00:21:23;;;;;;;33.20;16.27;;;;;;;1.44;81.99;100083.03;1757977;79;21198;-59
2020/12/15 00:23:51;;;;;;;28.50;15.20;;;;;;;1.43;82.00;100087.90;1757195;79;21182;-58
2020/12/15 00:26:21;;;;;;;25.80;14.43;;;;;;;1.42;82.05;100087.46;1755673;79;21667;-57
2020/12/15 00:28:51;;;;;;;26.83;15.17;;;;;;;1.43;82.07;100093.20;1750332;79;21182;-58
2020/12/15 00:31:19;;;;;;;27.97;16.17;;;;;;;1.45;82.09;100096.27;1759922;79;21194;-57
2020/12/15 00:33:46;;;;;;;26.83;15.97;;;;;;;1.44;82.07;100087.89;1758647;79;21206;-58
2020/12/15 00:36:20;;;;;;;27.93;17.07;;;;;;;1.47;82.09;100092.28;1755195;79;21254;-57
2020/12/15 00:38:48;;;;;;;29.87;17.53;;;;;;;1.47;82.07;100097.14;1755050;79;21447;-57
2020/12/15 00:41:15;;;;;;;33.00;16.97;;;;;;;1.47;82.04;100098.91;1756111;79;21231;-58
2020/12/15 00:43:42;;;;;;;31.87;16.60;;;;;;;1.45;82.04;100096.27;1749421;79;21756;-58
2020/12/15 00:46:14;;;;;;;28.77;14.27;;;;;;;1.45;82.03;100097.59;1753183;79;21221;-58
2020/12/15 00:48:44;;;;;;;27.07;15.70;;;;;;;1.44;81.96;100094.53;1751867;79;21628;-58
2020/12/15 00:51:18;;;;;;;26.97;14.27;;;;;;;1.44;82.00;100098.95;1756863;79;21560;-58
2020/12/15 00:53:46;;;;;;;24.27;13.55;;;;;;;1.46;82.04;100099.80;1754887;79;26561;-58
2020/12/15 00:56:16;;;;;;;30.30;16.23;;;;;;;1.46;82.03;100098.03;1759602;79;21158;-57
2020/12/15 00:58:44;;;;;;;28.87;16.87;;;;;;;1.48;82.01;100100.23;1750976;79;21097;-57
2020/12/15 01:01:12;;;;;;;31.53;17.67;;;;;;;1.49;82.04;100094.48;1757544;79;21096;-57
2020/12/15 01:03:41;;;;;;;28.27;16.03;;;;;;;1.50;82.01;100102.88;1757358;79;21362;-57
2020/12/15 01:06:09;;;;;;;28.17;17.63;;;;;;;1.49;82.01;100099.79;1754569;79;21695;-57
2020/12/15 01:08:37;;;;;;;28.60;16.17;;;;;;;1.48;81.98;100104.21;1753833;79;21218;-57
2020/12/15 01:11:06;;;;;;;27.73;14.47;;;;;;;1.46;81.97;100100.68;1728671;79;21209;-57
2020/12/15 01:13:34;;;;;;;26.63;14.00;;;;;;;1.47;81.95;100090.95;1755178;79;21726;-58
2020/12/15 01:16:06;;;;;;;23.67;14.10;;;;;;;1.47;81.92;100097.14;1754214;79;23608;-58
2020/12/15 01:18:37;;;;;;;25.00;13.67;;;;;;;1.46;81.93;100090.06;1748881;79;21234;-57
2020/12/15 01:21:05;;;;;;;27.47;15.93;;;;;;;1.47;81.98;100085.20;1763228;78;21528;-57
2020/12/15 01:23:32;;;;;;;22.97;15.03;;;;;;;1.49;82.02;100095.81;1759060;78;21209;-57
2020/12/15 01:26:01;;;;;;;24.00;14.93;;;;;;;1.51;82.02;100091.38;1717130;81;21258;-57
2020/12/15 01:28:29;;;;;;;25.83;15.90;;;;;;;1.53;81.98;100091.37;1728526;80;21238;-57
2020/12/15 01:30:57;;;;;;;28.23;16.90;;;;;;;1.51;81.94;100090.05;1727732;80;21199;-57
2020/12/15 01:33:43;;;;;;;24.17;15.00;;;;;;;1.54;81.92;100088.69;1821895;76;26819;-57
2020/12/15 01:36:12;;;;;;;24.73;14.20;;;;;;;1.47;81.92;100082.99;1786836;79;21068;-56
2020/12/15 01:38:50;;;;;;;21.90;13.17;;;;;;;1.47;81.89;100085.20;1793095;79;22572;-58
2020/12/15 01:41:20;;;;;;;23.47;13.07;;;;;;;1.48;81.91;100098.91;1786992;77;21229;-58
2020/12/15 01:43:56;;;;;;;22.27;12.57;;;;;;;1.48;81.92;100094.05;1787803;77;21234;-58
2020/12/15 01:46:25;;;;;;;21.33;13.17;;;;;;;1.49;81.96;100095.37;1797045;77;21043;-58
2020/12/15 01:48:55;;;;;;;21.43;13.30;;;;;;;1.53;81.93;100094.44;1794713;79;21363;-58
2020/12/15 01:51:23;;;;;;;23.83;14.20;;;;;;;1.53;81.82;100091.78;1758969;79;21365;-58
2020/12/15 01:53:58;;;;;;;24.13;14.97;;;;;;;1.50;81.84;100094.48;1795091;77;20984;-58
2020/12/15 01:56:26;;;;;;;25.43;13.87;;;;;;;1.50;81.88;100086.97;1792093;77;21575;-58
2020/12/15 01:58:56;;;;;;;21.93;14.30;;;;;;;1.49;81.87;100086.52;1793958;79;21202;-58
2020/12/15 02:01:25;;;;;;;21.23;12.57;;;;;;;1.47;81.85;100090.51;1789741;79;21207;-58
2020/12/15 02:03:53;;;;;;;19.30;11.60;;;;;;;1.48;81.84;100085.64;1798031;79;21344;-58
2020/12/15 02:06:32;;;;;;;20.00;11.33;;;;;;;1.51;81.85;100084.31;1870487;75;26644;-59
2020/12/15 02:09:04;;;;;;;22.50;12.17;;;;;;;1.48;81.86;100086.97;1810234;77;21237;-59
2020/12/15 02:11:34;;;;;;;19.20;12.60;;;;;;;1.48;81.84;100084.76;1813890;77;21434;-59
2020/12/15 02:14:01;;;;;;;19.93;12.73;;;;;;;1.49;81.87;100086.52;1816507;77;21000;-59
2020/12/15 02:16:29;;;;;;;21.47;14.17;;;;;;;1.49;81.95;100087.41;1813528;77;21491;-58
2020/12/15 02:18:57;;;;;;;19.30;13.07;;;;;;;1.52;81.93;100087.84;1819518;77;21119;-59
2020/12/15 02:21:26;;;;;;;24.30;14.03;;;;;;;1.52;81.82;100087.84;1815364;77;21171;-59
2020/12/15 02:23:56;;;;;;;20.73;13.87;;;;;;;1.48;81.81;100080.78;1814293;77;21211;-59
2020/12/15 02:26:36;;;;;;;22.33;13.07;;;;;;;1.51;81.84;100077.67;1868683;75;26733;-56
2020/12/15 02:29:04;;;;;;;22.80;11.70;;;;;;;1.47;81.83;100089.18;1827138;77;21179;-56
2020/12/15 02:31:32;;;;;;;24.47;12.03;;;;;;;1.50;81.83;100086.97;1833008;77;21691;-57
2020/12/15 02:34:00;;;;;;;20.07;11.80;;;;;;;1.51;81.82;100087.41;1767074;79;21215;-56
2020/12/15 02:36:30;;;;;;;21.43;13.37;;;;;;;1.52;81.90;100083.86;1781583;78;21295;-56
2020/12/15 02:39:13;;;;;;;18.60;13.57;;;;;;;1.55;81.86;100083.83;1802628;78;21176;-57
2020/12/15 02:41:42;;;;;;;22.33;14.37;;;;;;;1.54;81.81;100082.06;1801300;78;21195;-58
2020/12/15 02:44:11;;;;;;;23.53;14.70;;;;;;;1.53;81.77;100079.00;1800844;78;21203;-58
2020/12/15 02:46:40;;;;;;;21.07;13.57;;;;;;;1.49;81.76;100084.75;1765316;78;21171;-56
2020/12/15 02:49:08;;;;;;;21.73;13.53;;;;;;;1.49;81.75;100089.17;1779506;79;21025;-57
2020/12/15 02:51:35;;;;;;;23.80;14.10;;;;;;;1.48;81.72;100087.41;1777095;79;21206;-55
2020/12/15 02:54:14;;;;;;;23.03;13.53;;;;;;;1.47;81.78;100090.51;1802160;77;21169;-55
2020/12/15 02:56:42;;;;;;;20.87;13.50;;;;;;;1.49;81.86;100086.52;1770364;80;21422;-56
2020/12/15 02:59:09;;;;;;;20.30;13.00;;;;;;;1.50;81.85;100086.97;1780396;78;21826;-56
2020/12/15 03:01:46;;;;;;;21.17;14.67;;;;;;;1.51;81.83;100084.31;1773787;79;21436;-57
2020/12/15 03:04:14;;;;;;;23.23;13.67;;;;;;;1.53;81.83;100082.98;1774921;79;21170;-57
2020/12/15 03:06:43;;;;;;;22.77;13.37;;;;;;;1.51;81.78;100080.33;1777410;79;21265;-58
2020/12/15 03:09:12;;;;;;;21.93;13.97;;;;;;;1.49;81.78;100079.45;1749073;80;21208;-57
2020/12/15 03:11:41;;;;;;;20.10;12.37;;;;;;;1.48;81.79;100081.66;1750256;80;21218;-57
2020/12/15 03:14:10;;;;;;;17.97;12.57;;;;;;;1.49;81.79;100077.23;1779543;79;21174;-57
2020/12/15 03:16:37;;;;;;;17.43;11.00;;;;;;;1.48;81.77;100076.80;1748949;81;21864;-58
2020/12/15 03:19:06;;;;;;;18.73;11.47;;;;;;;1.48;81.77;100083.44;1781404;80;21190;-57
2020/12/15 03:21:37;;;;;;;19.70;12.60;;;;;;;1.48;81.83;100080.34;1784052;79;21681;-57
2020/12/15 03:24:05;;;;;;;17.03;11.50;;;;;;;1.49;81.91;100078.56;1781136;79;21198;-57
2020/12/15 03:26:33;;;;;;;20.17;14.07;;;;;;;1.50;81.88;100082.98;1748701;81;21131;-57
2020/12/15 03:29:02;;;;;;;17.83;11.60;;;;;;;1.49;81.87;100086.08;1784719;79;21118;-57
2020/12/15 03:31:30;;;;;;;23.97;13.97;;;;;;;1.49;81.83;100094.04;1718290;80;21182;-58
2020/12/15 03:33:58;;;;;;;18.97;12.50;;;;;;;1.47;81.84;100099.80;1781154;80;22163;-57
2020/12/15 03:36:25;;;;;;;19.73;11.70;;;;;;;1.45;81.84;100097.59;1748280;81;21195;-57
2020/12/15 03:38:54;;;;;;;19.70;11.83;;;;;;;1.46;81.86;100101.13;1780115;79;21520;-57
2020/12/15 03:41:21;;;;;;;18.20;11.30;;;;;;;1.46;81.90;100104.66;1781125;79;21259;-57
2020/12/15 03:43:51;;;;;;;15.17;10.00;;;;;;;1.47;81.90;100102.89;1745922;81;21126;-57
2020/12/15 03:46:28;;;;;;;18.80;12.00;;;;;;;1.55;81.97;100098.86;1825496;75;27202;-57
2020/12/15 03:48:57;;;;;;;15.10;10.57;;;;;;;1.50;81.84;100106.42;1803658;77;21162;-59
2020/12/15 03:51:26;;;;;;;21.73;12.80;;;;;;;1.49;81.92;100108.63;1782888;77;21379;-59
2020/12/15 03:54:11;;;;;;;20.60;12.37;;;;;;;1.51;81.92;100113.94;1801924;77;21194;-59
2020/12/15 03:56:41;;;;;;;18.83;13.03;;;;;;;1.50;81.89;100116.15;1774033;77;21194;-56
2020/12/15 03:59:08;;;;;;;18.63;12.40;;;;;;;1.47;81.91;100118.80;1798186;77;21175;-56
2020/12/15 04:01:36;;;;;;;16.50;11.10;;;;;;;1.46;81.86;100126.33;1794325;77;21020;-56
2020/12/15 04:04:04;;;;;;;16.20;10.63;;;;;;;1.46;81.84;100128.98;1796080;77;21031;-56
2020/12/15 04:06:37;;;;;;;19.03;10.83;;;;;;;1.46;81.93;100135.61;1796698;77;21024;-59
2020/12/15 04:09:06;;;;;;;17.33;11.07;;;;;;;1.47;81.96;100131.63;1801570;77;20977;-59
2020/12/15 04:11:34;;;;;;;14.97;10.53;;;;;;;1.48;81.94;100139.14;1802868;77;21441;-59
2020/12/15 04:14:01;;;;;;;18.00;12.87;;;;;;;1.49;81.99;100133.84;1756429;80;21123;-59
2020/12/15 04:16:30;;;;;;;20.53;12.00;;;;;;;1.51;81.98;100144.00;1762813;78;21207;-59
2020/12/15 04:18:59;;;;;;;23.20;13.57;;;;;;;1.51;81.98;100145.77;1759029;80;21202;-59
2020/12/15 04:21:28;;;;;;;19.37;12.33;;;;;;;1.48;81.95;100140.47;1765999;78;21188;-60
2020/12/15 04:23:58;;;;;;;17.80;11.13;;;;;;;1.46;81.91;100147.55;1745559;80;22362;-58
2020/12/15 04:26:27;;;;;;;17.50;11.20;;;;;;;1.44;81.92;100150.23;1764376;79;21150;-59
2020/12/15 04:28:55;;;;;;;18.63;10.60;;;;;;;1.43;81.99;100149.80;1762350;78;21418;-59
2020/12/15 04:31:22;;;;;;;18.50;11.03;;;;;;;1.46;82.05;100151.08;1763600;78;21214;-57
2020/12/15 04:33:51;;;;;;;18.13;11.93;;;;;;;1.47;82.06;100151.52;1765970;78;21158;-57
2020/12/15 04:36:21;;;;;;;17.37;12.20;;;;;;;1.48;82.09;100147.98;1765286;79;21135;-57
2020/12/15 04:38:48;;;;;;;18.80;12.17;;;;;;;1.50;82.07;100147.54;1758438;78;21075;-57
2020/12/15 04:41:25;;;;;;;20.03;12.97;;;;;;;1.53;82.04;100148.42;1871982;75;27208;-56
2020/12/15 04:43:55;;;;;;;20.87;12.60;;;;;;;1.48;82.02;100159.04;1791007;79;21075;-57
2020/12/15 04:46:22;;;;;;;22.83;12.13;;;;;;;1.46;82.03;100161.69;1792013;79;21318;-56
2020/12/15 04:49:01;;;;;;;17.57;10.93;;;;;;;1.45;82.07;100165.67;1777837;78;21076;-58
2020/12/15 04:51:50;;;;;;;18.33;10.80;;;;;;;1.50;82.10;100166.11;1871100;75;27211;-56
2020/12/15 04:54:19;;;;;;;16.27;11.17;;;;;;;1.47;82.10;100164.79;1839503;77;21477;-56
2020/12/15 04:56:48;;;;;;;18.70;10.93;;;;;;;1.49;82.10;100167.00;1836220;77;22178;-56
2020/12/15 04:59:20;;;;;;;16.63;11.60;;;;;;;1.51;82.11;100167.88;1843647;77;21471;-56
2020/12/15 05:01:50;;;;;;;16.67;10.83;;;;;;;1.53;82.10;100164.75;1789429;78;21229;-56
2020/12/15 05:04:19;;;;;;;17.60;12.30;;;;;;;1.53;82.08;100159.03;1789977;78;21064;-57
2020/12/15 05:06:54;;;;;;;16.27;11.20;;;;;;;1.51;82.11;100162.57;1778860;78;21253;-57
2020/12/15 05:09:30;;;;;;;19.00;11.23;;;;;;;1.51;82.06;100165.67;1804358;77;22098;-57
2020/12/15 05:11:59;;;;;;;17.00;10.07;;;;;;;1.49;82.02;100168.32;1811401;78;20992;-57
2020/12/15 05:14:28;;;;;;;17.90;10.50;;;;;;;1.48;82.04;100171.86;1799221;78;21599;-57
2020/12/15 05:16:56;;;;;;;16.67;9.47;;;;;;;1.49;82.08;100177.61;1771843;79;21182;-57
2020/12/15 05:19:31;;;;;;;15.10;8.70;;;;;;;1.48;82.00;100175.84;1802530;78;21213;-57
2020/12/15 05:21:59;;;;;;;11.97;8.30;;;;;;;1.49;82.10;100182.03;1774888;78;21242;-57
2020/12/15 05:24:29;;;;;;;12.47;8.83;;;;;;;1.51;82.10;100185.56;1801912;78;21809;-57
2020/12/15 05:27:00;;;;;;;15.87;10.47;;;;;;;1.53;82.12;100185.56;1804116;78;21037;-57
2020/12/15 05:29:29;;;;;;;14.13;9.27;;;;;;;1.55;82.11;100185.97;1806338;78;21186;-56
2020/12/15 05:32:06;;;;;;;18.35;13.93;;;;;;;1.58;82.05;100179.33;1861801;75;27658;-56
2020/12/15 05:34:52;;;;;;;13.37;9.90;;;;;;;1.60;82.02;100180.22;1770790;77;21173;-58
2020/12/15 05:37:47;;;;;;;12.87;8.70;;;;;;;1.70;81.82;100177.92;1869384;75;28004;-56
2020/12/15 05:40:22;;;;;;;12.37;8.73;;;;;;;1.67;81.84;100187.69;1829650;77;21028;-58
2020/12/15 05:43:03;;;;;;;13.53;9.80;;;;;;;1.69;81.86;100187.25;1821464;75;26594;-56
2020/12/15 05:45:32;;;;;;;15.13;10.17;;;;;;;1.65;81.85;100191.67;1786575;77;21218;-56
2020/12/15 05:48:03;;;;;;;15.57;10.73;;;;;;;1.66;81.90;100197.86;1777537;77;22067;-56
2020/12/15 05:50:30;;;;;;;15.47;10.50;;;;;;;1.65;81.84;100200.08;1787776;78;21509;-56
2020/12/15 05:53:03;;;;;;;16.07;10.60;;;;;;;1.64;81.81;100208.92;1795832;78;21072;-57
2020/12/15 05:55:30;;;;;;;18.67;12.30;;;;;;;1.62;81.82;100218.66;1791675;77;20945;-56
2020/12/15 05:57:58;;;;;;;13.00;9.23;;;;;;;1.58;81.80;100220.46;1790464;77;21218;-56
2020/12/15 06:00:27;;;;;;;15.70;10.73;;;;;;;1.59;81.79;100227.53;1794274;77;22566;-56
2020/12/15 06:03:00;;;;;;;14.47;10.43;;;;;;;1.59;81.83;100225.33;1787474;77;21607;-56
2020/12/15 06:05:30;;;;;;;16.30;10.03;;;;;;;1.60;81.86;100228.42;1790749;78;21174;-58
2020/12/15 06:07:58;;;;;;;13.70;9.87;;;;;;;1.60;81.87;100237.27;1769950;78;21210;-58
2020/12/15 06:10:28;;;;;;;17.03;10.70;;;;;;;1.60;81.82;100245.22;1770619;78;20981;-58
2020/12/15 06:12:57;;;;;;;16.30;11.70;;;;;;;1.60;81.82;100244.34;1771943;78;22222;-58
2020/12/15 06:15:25;;;;;;;16.67;12.00;;;;;;;1.58;81.83;100252.30;1767021;78;21530;-58
2020/12/15 06:17:54;;;;;;;19.23;12.60;;;;;;;1.56;81.81;100253.19;1771249;78;21183;-59
2020/12/15 06:20:22;;;;;;;20.43;13.57;;;;;;;1.53;81.86;100258.94;1763161;80;21163;-59
2020/12/15 06:22:54;;;;;;;18.43;11.63;;;;;;;1.52;81.87;100256.31;1775357;79;21468;-58
2020/12/15 06:25:29;;;;;;;17.07;11.37;;;;;;;1.53;81.88;100262.91;1765659;78;22689;-59
2020/12/15 06:28:03;;;;;;;15.93;10.65;;;;;;;1.55;81.87;100260.70;1766219;78;21640;-59
2020/12/15 06:30:32;;;;;;;18.10;10.50;;;;;;;1.57;81.93;100265.13;1769749;79;21583;-58
2020/12/15 06:33:04;;;;;;;15.60;10.27;;;;;;;1.60;81.92;100268.22;1770711;80;21530;-58
2020/12/15 06:35:32;;;;;;;19.47;11.97;;;;;;;1.62;81.94;100276.59;1769602;78;21063;-59
2020/12/15 06:38:00;;;;;;;19.27;12.47;;;;;;;1.62;81.85;100269.95;1772012;79;21561;-59
2020/12/15 06:40:42;;;;;;;23.07;13.20;;;;;;;1.61;81.88;100275.30;1767360;78;21680;-59
2020/12/15 06:43:10;;;;;;;18.60;12.07;;;;;;;1.60;81.89;100277.51;1785571;79;21539;-57
2020/12/15 06:45:37;;;;;;;19.17;12.27;;;;;;;1.59;81.87;100281.05;1783306;79;21197;-57
2020/12/15 06:48:05;;;;;;;17.07;10.27;;;;;;;1.59;81.90;100282.38;1789639;78;21229;-57
2020/12/15 06:50:42;;;;;;;16.40;11.73;;;;;;;1.61;81.88;100285.47;1789710;79;21287;-57
2020/12/15 06:53:11;;;;;;;18.77;10.40;;;;;;;1.63;81.84;100280.13;1786345;78;21185;-57
2020/12/15 06:55:38;;;;;;;15.37;9.83;;;;;;;1.65;81.87;100282.34;1782168;78;22191;-57
2020/12/15 06:58:05;;;;;;;16.53;11.37;;;;;;;1.66;81.87;100284.11;1781559;78;21161;-57
2020/12/15 07:00:40;;;;;;;21.37;12.30;;;;;;;1.69;81.84;100286.77;1783580;79;21213;-59
2020/12/15 07:03:07;;;;;;;19.40;11.95;;;;;;;1.70;81.79;100289.38;1783299;79;21205;-59
2020/12/15 07:05:38;;;;;;;19.47;13.17;;;;;;;1.70;81.79;100289.38;1748737;80;21181;-59
2020/12/15 07:08:07;;;;;;;20.70;13.93;;;;;;;1.69;81.69;100294.72;1764302;79;21447;-59
2020/12/15 07:10:41;;;;;;;22.33;13.27;;;;;;;1.67;81.75;100292.52;1725909;81;21205;-59
2020/12/15 07:13:13;;;;;;;16.90;11.27;;;;;;;1.66;81.75;100292.95;1768335;79;21581;-58
2020/12/15 07:15:40;;;;;;;17.03;11.73;;;;;;;1.67;81.69;100292.52;1754103;80;21569;-58
2020/12/15 07:18:07;;;;;;;16.13;10.30;;;;;;;1.68;81.70;100297.81;1772009;79;21170;-58
2020/12/15 07:20:35;;;;;;;18.90;10.73;;;;;;;1.69;81.71;100300.91;1734175;81;21581;-58
2020/12/15 07:23:02;;;;;;;15.90;11.00;;;;;;;1.70;81.69;100301.33;1745793;81;21224;-58
2020/12/15 07:25:30;;;;;;;20.87;12.07;;;;;;;1.74;81.73;100303.53;1748027;80;21177;-58
2020/12/15 07:27:58;;;;;;;16.93;11.83;;;;;;;1.76;81.64;100305.75;1760637;80;21328;-58
2020/12/15 07:30:26;;;;;;;18.80;11.77;;;;;;;1.75;81.64;100302.66;1718710;82;21204;-58
2020/12/15 07:32:53;;;;;;;21.37;12.80;;;;;;;1.75;81.59;100306.19;1746176;80;21203;-58
2020/12/15 07:35:23;;;;;;;24.17;14.73;;;;;;;1.73;81.55;100306.62;1763398;79;21645;-58
2020/12/15 07:40:29;;;;;;;22.80;16.57;;;;;;;1.72;81.53;100291.59;1811062;77;29435;-57
2020/12/15 07:42:59;;;;;;;17.60;12.37;;;;;;;1.74;81.55;100299.55;1793701;78;21143;-57
2020/12/15 07:45:31;;;;;;;20.47;13.67;;;;;;;1.81;81.40;100299.96;1800364;78;21829;-57
2020/12/15 07:47:58;;;;;;;19.47;13.57;;;;;;;1.82;81.47;100303.94;1796275;78;21049;-58
2020/12/15 07:50:27;;;;;;;22.57;13.70;;;;;;;1.83;81.39;100299.52;1750286;80;21063;-60
2020/12/15 07:52:55;;;;;;;23.60;15.40;;;;;;;1.82;81.43;100300.41;1759157;80;21017;-60
2020/12/15 07:55:23;;;;;;;19.43;14.83;;;;;;;1.84;81.53;100299.52;1764879;80;21147;-60
2020/12/15 07:57:50;;;;;;;25.23;16.60;;;;;;;1.87;81.52;100299.48;1732792;80;21849;-60
2020/12/15 08:00:21;;;;;;;31.20;18.07;;;;;;;1.88;81.55;100299.92;1750362;80;21068;-60
2020/12/15 08:02:50;;;;;;;27.33;17.20;;;;;;;1.92;81.49;100310.55;1756727;79;21180;-61
2020/12/15 08:05:23;;;;;;;25.53;15.87;;;;;;;1.98;81.37;100318.03;1728841;81;21226;-60
2020/12/15 08:07:58;;;;;;;31.77;15.50;;;;;;;2.04;81.31;100307.84;1717307;81;21855;-61
2020/12/15 08:10:31;;;;;;;22.27;13.97;;;;;;;2.08;81.19;100317.55;1704906;81;22275;-61
2020/12/15 08:13:01;;;;;;;26.57;19.43;;;;;;;2.13;81.10;100323.70;1719586;79;25403;-61
2020/12/15 08:15:29;;;;;;;40.30;24.60;;;;;;;2.16;80.99;100325.91;1699739;82;21567;-60
2020/12/15 08:17:58;;;;;;;35.13;21.13;;;;;;;2.19;80.93;100325.91;1703550;82;21183;-60
2020/12/15 08:20:29;;;;;;;28.47;17.57;;;;;;;2.20;80.83;100326.79;1708132;82;21119;-61
2020/12/15 08:23:13;;;;;;;27.60;16.50;;;;;;;2.19;80.74;100325.02;1710465;82;21476;-61
2020/12/15 08:25:44;;;;;;;29.80;18.57;;;;;;;2.16;80.70;100332.55;1707711;82;28417;-61
2020/12/15 08:28:22;;;;;;;25.50;16.07;;;;;;;2.12;80.64;100333.47;1704484;82;21664;-61
2020/12/15 08:30:50;;;;;;;26.70;14.37;;;;;;;2.09;80.64;100328.16;1706443;82;21115;-62
2020/12/15 08:33:27;;;;;;;26.90;15.77;;;;;;;2.10;80.65;100331.26;1677547;83;21195;-62
2020/12/15 08:35:58;;;;;;;25.67;15.13;;;;;;;2.11;80.65;100333.47;1650523;85;21446;-62
2020/12/15 08:38:26;;;;;;;24.13;16.60;;;;;;;2.12;80.66;100333.91;1666977;83;21170;-59
2020/12/15 08:40:58;;;;;;;27.90;15.87;;;;;;;2.13;80.65;100332.55;1660304;83;22016;-61
2020/12/15 08:43:26;;;;;;;26.77;16.33;;;;;;;2.13;80.65;100324.58;1666109;83;21268;-60
2020/12/15 08:45:53;;;;;;;25.43;15.97;;;;;;;2.13;80.58;100331.22;1664863;83;21499;-60
2020/12/15 08:48:23;;;;;;;30.50;17.77;;;;;;;2.13;80.58;100329.89;1662562;83;22593;-60
2020/12/15 08:50:50;;;;;;;28.33;15.80;;;;;;;2.10;80.58;100325.95;1666869;83;21606;-60
2020/12/15 08:53:18;;;;;;;25.03;15.03;;;;;;;2.08;80.55;100330.38;1662987;84;22435;-58
2020/12/15 08:55:46;;;;;;;26.53;15.37;;;;;;;2.07;80.57;100328.61;1672095;84;21238;-60
2020/12/15 08:58:14;;;;;;;26.23;15.20;;;;;;;2.10;80.55;100329.94;1657087;84;22124;-60
2020/12/15 09:00:44;;;;;;;23.90;13.10;;;;;;;2.12;80.56;100329.93;1700479;82;21434;-62
2020/12/15 09:03:14;;;;;;;24.87;16.33;;;;;;;2.13;80.56;100328.56;1703394;82;21211;-61
2020/12/15 09:05:50;;;;;;;26.90;15.80;;;;;;;2.15;80.56;100326.80;1699392;82;21183;-62
2020/12/15 09:08:22;;;;;;;30.70;17.27;;;;;;;2.17;80.56;100326.80;1701366;82;21186;-61
2020/12/15 09:10:54;;;;;;;29.63;17.13;;;;;;;2.16;80.48;100325.91;1701186;82;21183;-61
2020/12/15 09:13:21;;;;;;;30.40;17.20;;;;;;;2.14;80.45;100327.68;1664767;84;21349;-62
2020/12/15 09:15:55;;;;;;;31.10;16.87;;;;;;;2.13;80.44;100323.70;1699730;82;21000;-62
2020/12/15 09:18:35;;;;;;;28.50;15.30;;;;;;;2.11;80.46;100329.05;1702033;82;21235;-62
2020/12/15 09:21:14;;;;;;;29.43;16.13;;;;;;;2.12;80.46;100327.28;1701847;82;21105;-62
2020/12/15 09:23:53;;;;;;;37.47;16.23;;;;;;;2.11;80.49;100327.72;1671615;84;21611;-62
2020/12/15 09:26:22;;;;;;;31.10;17.73;;;;;;;2.13;80.48;100327.69;1700298;82;22310;-61
2020/12/15 09:28:51;;;;;;;32.27;17.00;;;;;;;2.14;80.49;100325.47;1698719;82;21731;-62
2020/12/15 09:31:19;;;;;;;31.50;17.77;;;;;;;2.12;80.48;100324.17;1701177;82;21182;-62
2020/12/15 09:33:47;;;;;;;33.43;20.10;;;;;;;2.13;80.49;100331.67;1697929;82;21143;-62
2020/12/15 09:36:15;;;;;;;33.60;18.43;;;;;;;2.12;80.47;100341.44;1701908;82;21175;-61
2020/12/15 09:38:42;;;;;;;31.40;17.03;;;;;;;2.12;80.48;100332.59;1668829;84;23649;-61
2020/12/15 09:41:09;;;;;;;30.70;16.73;;;;;;;2.10;80.50;100335.24;1701815;82;21644;-62
2020/12/15 09:43:36;;;;;;;26.33;15.20;;;;;;;2.12;80.50;100325.95;1703005;82;21172;-62
2020/12/15 09:46:04;;;;;;;27.43;15.10;;;;;;;2.12;80.49;100330.81;1702712;82;21248;-62
2020/12/15 09:48:32;;;;;;;26.33;15.33;;;;;;;2.15;80.46;100330.78;1701792;82;21202;-62
2020/12/15 09:51:00;;;;;;;23.97;14.50;;;;;;;2.18;80.50;100328.56;1700959;82;21650;-63
2020/12/15 09:53:27;;;;;;;29.67;17.83;;;;;;;2.21;80.45;100325.91;1703251;82;21235;-61
2020/12/15 09:55:56;;;;;;;31.50;18.10;;;;;;;2.22;80.40;100327.19;1707475;82;21416;-62
2020/12/15 09:58:23;;;;;;;35.30;19.37;;;;;;;2.24;80.42;100329.84;1704179;82;21144;-62
2020/12/15 10:00:53;;;;;;;36.00;19.53;;;;;;;2.24;80.37;100324.53;1693859;82;21621;-62
2020/12/15 10:03:20;;;;;;;34.93;19.17;;;;;;;2.24;80.29;100329.41;1701087;82;21343;-62
2020/12/15 10:05:48;;;;;;;39.03;20.97;;;;;;;2.21;80.29;100325.42;1700031;82;21198;-62
2020/12/15 10:08:15;;;;;;;31.80;18.33;;;;;;;2.18;80.26;100325.46;1703157;82;21135;-62
2020/12/15 10:10:43;;;;;;;33.37;17.90;;;;;;;2.18;80.29;100318.82;1703598;82;21131;-62
2020/12/15 10:13:10;;;;;;;29.47;17.27;;;;;;;2.18;80.30;100320.16;1702224;82;21119;-61
2020/12/15 10:15:38;;;;;;;27.70;16.30;;;;;;;2.18;80.31;100323.25;1699488;82;21208;-61
2020/12/15 10:18:09;;;;;;;28.87;15.77;;;;;;;2.20;80.32;100319.70;1701449;82;21155;-61
2020/12/15 10:20:36;;;;;;;31.20;18.97;;;;;;;2.23;80.31;100318.34;1698573;82;21201;-61
2020/12/15 10:23:03;;;;;;;32.53;18.97;;;;;;;2.26;80.26;100313.02;1664308;84;21211;-62
2020/12/15 10:25:31;;;;;;;29.37;15.83;;;;;;;2.28;80.28;100319.22;1693894;82;21605;-62
2020/12/15 10:27:58;;;;;;;31.10;17.43;;;;;;;2.30;80.24;100317.85;1700241;82;22300;-62
2020/12/15 10:30:25;;;;;;;31.30;18.07;;;;;;;2.32;80.22;100319.17;1694895;82;21211;-62
2020/12/15 10:32:52;;;;;;;31.23;18.60;;;;;;;2.30;80.16;100323.16;1697257;82;21222;-63
2020/12/15 10:35:19;;;;;;;35.10;18.30;;;;;;;2.30;80.12;100320.51;1700840;82;21218;-62
2020/12/15 10:37:47;;;;;;;40.13;19.83;;;;;;;2.28;80.08;100325.86;1705272;82;21175;-63
2020/12/15 10:40:14;;;;;;;39.73;20.07;;;;;;;2.29;80.09;100321.42;1699802;82;21555;-62
2020/12/15 10:42:41;;;;;;;35.37;19.67;;;;;;;2.30;80.07;100320.98;1700457;82;22016;-62
2020/12/15 10:45:08;;;;;;;37.50;21.20;;;;;;;2.30;80.07;100326.30;1699984;82;21191;-61
2020/12/15 10:47:36;;;;;;;36.43;21.27;;;;;;;2.31;80.12;100328.03;1694748;82;21167;-62
2020/12/15 10:50:03;;;;;;;45.73;24.60;;;;;;;2.31;80.10;100326.70;1697782;82;21219;-61
2020/12/15 10:52:30;;;;;;;46.90;25.40;;;;;;;2.33;80.10;100324.93;1704857;82;22991;-61
2020/12/15 10:54:58;;;;;;;46.00;27.07;;;;;;;2.34;80.06;100323.59;1673758;84;21676;-62
2020/12/15 10:57:25;;;;;;;50.93;29.30;;;;;;;2.33;80.01;100314.30;1660130;84;21250;-61
2020/12/15 10:59:52;;;;;;;42.50;24.40;;;;;;;2.31;80.01;100320.06;1665936;84;21191;-61
2020/12/15 11:02:19;;;;;;;42.70;25.07;;;;;;;2.28;80.00;100324.97;1695757;82;21601;-61
2020/12/15 11:04:47;;;;;;;40.30;23.17;;;;;;;2.26;80.03;100321.44;1700262;82;21167;-60
2020/12/15 11:07:14;;;;;;;43.20;24.47;;;;;;;2.24;80.03;100318.78;1702360;82;21517;-61
2020/12/15 11:09:42;;;;;;;36.13;20.97;;;;;;;2.24;80.05;100324.53;1693516;82;21852;-60
2020/12/15 11:12:10;;;;;;;37.83;21.77;;;;;;;2.25;80.11;100328.52;1701508;82;21572;-60
2020/12/15 11:14:37;;;;;;;36.27;20.93;;;;;;;2.27;80.09;100329.40;1702123;82;21647;-60
2020/12/15 11:17:05;;;;;;;43.30;23.23;;;;;;;2.28;80.09;100332.94;1704014;82;22114;-60
2020/12/15 11:19:33;;;;;;;40.97;22.67;;;;;;;2.28;80.09;100330.28;1665690;84;21251;-60
2020/12/15 11:22:01;;;;;;;38.10;22.23;;;;;;;2.28;80.08;100331.17;1644051;85;21235;-60
2020/12/15 11:24:28;;;;;;;46.03;25.53;;;;;;;2.28;80.06;100336.48;1665592;84;21216;-60
2020/12/15 11:26:55;;;;;;;40.20;22.63;;;;;;;2.25;80.05;100340.91;1665472;84;21242;-60
2020/12/15 11:29:22;;;;;;;36.33;20.33;;;;;;;2.21;80.02;100330.73;1702423;82;21421;-61
2020/12/15 11:31:51;;;;;;;37.83;20.80;;;;;;;2.23;80.07;100345.34;1703768;82;21744;-60